createdAt,value
2023-05-06T00:00:07.193Z,950.01
2023-05-06T00:01:07.164Z,950.02
2023-05-06T00:02:07.275Z,950.00
2023-05-06T00:03:07.228Z,949.99
2023-05-06T00:04:07.237Z,949.93
2023-05-06T00:05:07.211Z,949.93
2023-05-06T00:06:07.114Z,949.87
2023-05-06T00:07:07.091Z,949.90
2023-05-06T00:08:07.074Z,949.85
2023-05-06T00:09:07.069Z,949.86
2023-05-06T00:10:07.077Z,949.81
2023-05-06T00:11:07.050Z,949.82
2023-05-06T00:12:07.025Z,949.80
2023-05-06T00:13:07.071Z,949.84
2023-05-06T00:14:07.002Z,949.77
2023-05-06T00:15:07.139Z,949.82
2023-05-06T00:16:06.997Z,949.81
2023-05-06T00:17:06.968Z,949.85
2023-05-06T00:18:07.082Z,949.84
2023-05-06T00:19:06.970Z,949.82
2023-05-06T00:20:06.954Z,949.76
2023-05-06T00:21:06.933Z,949.83
2023-05-06T00:22:06.907Z,949.84
2023-05-06T00:23:06.919Z,949.81
2023-05-06T00:24:06.886Z,949.75
2023-05-06T00:25:07.118Z,949.77
2023-05-06T00:26:06.888Z,949.78
2023-05-06T00:27:06.853Z,949.77
2023-05-06T00:28:06.844Z,949.81
2023-05-06T00:29:06.835Z,949.81
2023-05-06T00:30:06.818Z,949.82
2023-05-06T00:31:06.840Z,949.76
2023-05-06T00:32:06.899Z,949.71
2023-05-06T00:33:06.823Z,949.74
2023-05-06T00:34:06.879Z,949.72
2023-05-06T00:35:06.964Z,949.73
2023-05-06T00:36:06.767Z,949.68
2023-05-06T00:37:06.744Z,949.69
2023-05-06T00:38:06.729Z,949.69
2023-05-06T00:39:06.725Z,949.68
2023-05-06T00:40:06.706Z,949.64
2023-05-06T00:41:06.712Z,949.69
2023-05-06T00:42:06.678Z,949.65
2023-05-06T00:43:06.676Z,949.68
2023-05-06T00:44:06.658Z,949.66
2023-05-06T00:45:06.751Z,949.66
2023-05-06T00:46:06.703Z,949.63
2023-05-06T00:47:06.624Z,949.69
2023-05-06T00:48:06.680Z,949.67
2023-05-06T00:49:06.630Z,949.64
2023-05-06T00:50:06.703Z,949.61
2023-05-06T00:51:06.578Z,949.60
2023-05-06T00:52:06.562Z,949.58
2023-05-06T00:56:35.619Z,949.64
2023-05-06T00:57:35.552Z,949.69
2023-05-06T00:58:35.572Z,949.65
2023-05-06T00:59:35.537Z,949.71
2023-05-06T01:00:35.526Z,949.66
2023-05-06T01:01:35.571Z,949.65
2023-05-06T01:02:46.179Z,949.62
2023-05-06T01:03:36.657Z,949.63
2023-05-06T01:04:35.512Z,949.66
2023-05-06T01:05:35.721Z,949.59
2023-05-06T01:06:35.462Z,949.56
2023-05-06T01:07:35.464Z,949.58
2023-05-06T01:08:35.459Z,949.56
2023-05-06T01:09:35.438Z,949.54
2023-05-06T01:10:35.409Z,949.59
2023-05-06T01:11:35.397Z,949.59
2023-05-06T01:12:35.452Z,949.54
2023-05-06T01:13:35.379Z,949.53
2023-05-06T01:14:35.380Z,949.57
2023-05-06T01:15:35.354Z,949.54
2023-05-06T01:16:35.377Z,949.55
2023-05-06T01:17:35.384Z,949.52
2023-05-06T01:18:35.348Z,949.50
2023-05-06T01:19:35.333Z,949.48
2023-05-06T01:20:35.297Z,949.46
2023-05-06T01:21:35.395Z,949.45
2023-05-06T01:22:35.276Z,949.42
2023-05-06T01:23:35.265Z,949.46
2023-05-06T01:24:35.262Z,949.43
2023-05-06T01:25:35.263Z,949.43
2023-05-06T01:26:35.232Z,949.38
2023-05-06T01:27:35.236Z,949.38
2023-05-06T01:28:35.210Z,949.40
2023-05-06T01:29:35.232Z,949.38
2023-05-06T01:30:35.198Z,949.35
2023-05-06T01:31:35.386Z,949.35
2023-05-06T01:32:35.188Z,949.33
2023-05-06T01:33:35.182Z,949.33
2023-05-06T01:34:35.143Z,949.32
2023-05-06T01:35:35.134Z,949.32
2023-05-06T01:36:35.131Z,949.33
2023-05-06T01:37:35.147Z,949.33
2023-05-06T01:38:35.099Z,949.31
2023-05-06T01:39:35.086Z,949.31
2023-05-06T01:40:35.117Z,949.35
2023-05-06T01:41:35.068Z,949.30
2023-05-06T01:42:35.058Z,949.27
2023-05-06T01:43:35.159Z,949.23
2023-05-06T01:44:35.050Z,949.25
2023-05-06T01:45:35.047Z,949.24
2023-05-06T01:46:35.071Z,949.23
2023-05-06T01:47:35.071Z,949.23
2023-05-06T01:48:35.007Z,949.26
2023-05-06T01:49:34.981Z,949.25
2023-05-06T01:50:34.966Z,949.28
2023-05-06T01:51:34.954Z,949.27
2023-05-06T01:52:34.939Z,949.29
2023-05-06T01:53:34.974Z,949.29
2023-05-06T01:54:34.963Z,949.28
2023-05-06T01:55:34.934Z,949.30
2023-05-06T01:56:34.892Z,949.29
2023-05-06T01:57:34.910Z,949.35
2023-05-06T01:58:34.884Z,949.29
2023-05-06T01:59:34.882Z,949.31
2023-05-06T02:00:34.849Z,949.27
2023-05-06T02:01:34.863Z,949.32
2023-05-06T02:02:34.882Z,949.26
2023-05-06T02:03:34.954Z,949.31
2023-05-06T02:04:34.834Z,949.30
2023-05-06T02:05:34.790Z,949.32
2023-05-06T02:06:34.780Z,949.33
2023-05-06T02:07:34.766Z,949.30
2023-05-06T02:08:34.768Z,949.28
2023-05-06T02:09:34.953Z,949.27
2023-05-06T02:10:34.736Z,949.29
2023-05-06T02:11:34.734Z,949.28
2023-05-06T02:12:34.720Z,949.26
2023-05-06T02:13:34.696Z,949.26
2023-05-06T02:14:34.698Z,949.30
2023-05-06T02:15:34.708Z,949.29
2023-05-06T02:16:34.740Z,949.23
2023-05-06T02:17:34.679Z,949.23
2023-05-06T02:18:34.647Z,949.22
2023-05-06T02:19:34.637Z,949.19
2023-05-06T02:20:34.625Z,949.19
2023-05-06T02:21:34.647Z,949.21
2023-05-06T02:22:34.598Z,949.21
2023-05-06T02:23:34.589Z,949.19
2023-05-06T02:24:34.574Z,949.15
2023-05-06T02:25:34.593Z,949.19
2023-05-06T02:26:34.590Z,949.22
2023-05-06T02:27:34.537Z,949.20
2023-05-06T02:28:34.546Z,949.19
2023-05-06T02:29:34.516Z,949.23
2023-05-06T02:30:34.537Z,949.20
2023-05-06T02:31:34.506Z,949.21
2023-05-06T02:32:34.508Z,949.19
2023-05-06T02:33:34.465Z,949.25
2023-05-06T02:34:34.531Z,949.17
2023-05-06T02:35:34.465Z,949.21
2023-05-06T02:36:34.438Z,949.19
2023-05-06T02:37:34.422Z,949.18
2023-05-06T02:38:34.439Z,949.20
2023-05-06T02:39:34.423Z,949.20
2023-05-06T02:40:34.393Z,949.18
2023-05-06T02:41:34.414Z,949.19
2023-05-06T02:42:34.403Z,949.15
2023-05-06T02:43:34.356Z,949.16
2023-05-06T02:44:34.377Z,949.14
2023-05-06T02:45:34.387Z,949.13
2023-05-06T02:46:34.348Z,949.12
2023-05-06T02:47:34.345Z,949.10
2023-05-06T02:48:34.298Z,949.11
2023-05-06T02:49:34.284Z,949.12
2023-05-06T02:50:41.309Z,949.11
2023-05-06T02:51:34.285Z,949.10
2023-05-06T02:52:34.253Z,949.19
2023-05-06T02:53:34.242Z,949.21
2023-05-06T02:54:34.228Z,949.19
2023-05-06T02:55:34.216Z,949.21
2023-05-06T02:56:34.234Z,949.19
2023-05-06T02:57:34.284Z,949.14
2023-05-06T02:58:34.185Z,949.12
2023-05-06T02:59:34.173Z,949.14
2023-05-06T03:00:34.172Z,949.11
2023-05-06T03:01:34.199Z,949.12
2023-05-06T03:02:34.182Z,949.15
2023-05-06T03:03:34.151Z,949.11
2023-05-06T03:04:34.218Z,949.10
2023-05-06T03:05:34.124Z,949.06
2023-05-06T03:06:34.093Z,949.09
2023-05-06T03:07:34.082Z,949.12
2023-05-06T03:08:34.084Z,949.10
2023-05-06T03:09:34.065Z,949.13
2023-05-06T03:10:34.065Z,949.08
2023-05-06T03:11:34.067Z,949.12
2023-05-06T03:12:34.040Z,949.17
2023-05-06T03:13:34.181Z,949.13
2023-05-06T03:14:34.002Z,949.13
2023-05-06T03:15:34.011Z,949.21
2023-05-06T03:16:34.004Z,949.20
2023-05-06T03:17:34.042Z,949.19
2023-05-06T03:18:33.958Z,949.19
2023-05-06T03:19:33.954Z,949.18
2023-05-06T03:20:33.933Z,949.16
2023-05-06T03:21:34.000Z,949.15
2023-05-06T03:22:33.931Z,949.18
2023-05-06T03:23:33.910Z,949.16
2023-05-06T03:24:33.899Z,949.16
2023-05-06T03:25:33.886Z,949.18
2023-05-06T03:26:33.887Z,949.20
2023-05-06T03:27:33.853Z,949.18
2023-05-06T03:28:33.843Z,949.21
2023-05-06T03:29:34.015Z,949.22
2023-05-06T03:30:33.832Z,949.20
2023-05-06T03:31:33.865Z,949.18
2023-05-06T03:32:33.799Z,949.18
2023-05-06T03:33:33.788Z,949.20
2023-05-06T03:34:33.772Z,949.14
2023-05-06T03:35:33.764Z,949.12
2023-05-06T03:36:33.770Z,949.09
2023-05-06T03:37:33.770Z,949.07
2023-05-06T03:38:33.730Z,949.04
2023-05-06T03:39:33.741Z,949.06
2023-05-06T03:40:33.704Z,949.05
2023-05-06T03:41:33.697Z,949.07
2023-05-06T03:42:33.701Z,949.08
2023-05-06T03:43:33.683Z,949.07
2023-05-06T03:44:33.658Z,949.09
2023-05-06T03:45:33.740Z,949.06
2023-05-06T03:46:33.673Z,949.05
2023-05-06T03:47:33.673Z,949.04
2023-05-06T03:48:33.622Z,949.06
2023-05-06T03:49:33.637Z,949.08
2023-05-06T03:50:33.590Z,949.09
2023-05-06T03:51:33.587Z,949.08
2023-05-06T03:52:33.587Z,949.07
2023-05-06T03:53:33.593Z,949.09
2023-05-06T03:54:33.546Z,949.09
2023-05-06T03:55:33.542Z,949.05
2023-05-06T03:56:33.527Z,949.04
2023-05-06T03:57:33.513Z,949.07
2023-05-06T03:58:33.524Z,949.12
2023-05-06T03:59:33.490Z,949.12
2023-05-06T04:00:33.483Z,949.15
2023-05-06T04:01:33.686Z,949.15
2023-05-06T04:02:33.510Z,949.19
2023-05-06T04:03:33.520Z,949.18
2023-05-06T04:04:33.444Z,949.22
2023-05-06T04:05:33.441Z,949.21
2023-05-06T04:06:33.411Z,949.18
2023-05-06T04:07:33.407Z,949.24
2023-05-06T04:08:33.407Z,949.23
2023-05-06T04:09:33.388Z,949.20
2023-05-06T04:10:33.366Z,949.24
2023-05-06T04:11:33.357Z,949.23
2023-05-06T04:12:33.383Z,949.21
2023-05-06T04:13:33.347Z,949.23
2023-05-06T04:14:33.332Z,949.20
2023-05-06T04:15:33.308Z,949.23
2023-05-06T04:16:33.339Z,949.23
2023-05-06T04:17:33.457Z,949.29
2023-05-06T04:18:33.289Z,949.30
2023-05-06T04:19:33.274Z,949.27
2023-05-06T04:20:33.264Z,949.30
2023-05-06T04:21:33.248Z,949.31
2023-05-06T04:22:33.228Z,949.34
2023-05-06T04:23:33.247Z,949.36
2023-05-06T04:24:33.301Z,949.39
2023-05-06T04:25:33.202Z,949.39
2023-05-06T04:26:33.186Z,949.39
2023-05-06T04:27:33.190Z,949.44
2023-05-06T04:28:33.182Z,949.45
2023-05-06T04:29:33.898Z,949.46
2023-05-06T04:30:33.133Z,949.44
2023-05-06T04:31:33.227Z,949.48
2023-05-06T04:32:33.168Z,949.49
2023-05-06T04:33:33.122Z,949.47
2023-05-06T04:34:33.094Z,949.50
2023-05-06T04:35:33.086Z,949.50
2023-05-06T04:36:33.071Z,949.50
2023-05-06T04:37:33.091Z,949.56
2023-05-06T04:38:33.046Z,949.53
2023-05-06T04:39:33.035Z,949.55
2023-05-06T04:40:33.028Z,949.55
2023-05-06T04:41:33.037Z,949.48
2023-05-06T04:42:33.021Z,949.52
2023-05-06T04:43:33.007Z,949.59
2023-05-06T04:44:32.981Z,949.59
2023-05-06T04:45:33.046Z,949.62
2023-05-06T04:46:32.966Z,949.63
2023-05-06T04:47:33.035Z,949.62
2023-05-06T04:48:32.958Z,949.63
2023-05-06T04:49:33.043Z,949.66
2023-05-06T04:50:32.935Z,949.68
2023-05-06T04:51:32.911Z,949.68
2023-05-06T04:52:32.911Z,949.68
2023-05-06T04:53:32.893Z,949.69
2023-05-06T04:54:32.880Z,949.68
2023-05-06T04:55:32.859Z,949.73
2023-05-06T04:56:32.862Z,949.71
2023-05-06T04:57:32.857Z,949.74
2023-05-06T04:58:33.115Z,949.77
2023-05-06T04:59:32.811Z,949.80
2023-05-06T05:00:32.802Z,949.81
2023-05-06T05:01:32.856Z,949.76
2023-05-06T05:02:32.961Z,949.80
2023-05-06T05:03:32.870Z,949.84
2023-05-06T05:04:32.785Z,949.82
2023-05-06T05:05:32.836Z,949.76
2023-05-06T05:06:32.734Z,949.81
2023-05-06T05:07:32.722Z,949.78
2023-05-06T05:08:32.732Z,949.77
2023-05-06T05:09:32.709Z,949.78
2023-05-06T05:10:32.686Z,949.79
2023-05-06T05:11:32.680Z,949.78
2023-05-06T05:12:32.687Z,949.81
2023-05-06T05:13:32.656Z,949.88
2023-05-06T05:14:32.655Z,949.85
2023-05-06T05:15:32.641Z,949.84
2023-05-06T05:16:32.706Z,949.87
2023-05-06T05:17:32.631Z,949.86
2023-05-06T05:18:32.615Z,949.83
2023-05-06T05:19:32.586Z,949.85
2023-05-06T05:20:32.579Z,949.84
2023-05-06T05:21:32.599Z,949.86
2023-05-06T05:22:32.558Z,949.88
2023-05-06T05:23:32.556Z,949.86
2023-05-06T05:24:32.548Z,949.82
2023-05-06T05:25:32.530Z,949.82
2023-05-06T05:26:32.513Z,949.80
2023-05-06T05:27:32.490Z,949.84
2023-05-06T05:28:32.510Z,949.84
2023-05-06T05:29:32.474Z,949.84
2023-05-06T05:30:32.462Z,949.81
2023-05-06T05:31:32.499Z,949.83
2023-05-06T05:32:32.472Z,949.83
2023-05-06T05:33:32.465Z,949.84
2023-05-06T05:34:32.415Z,949.80
2023-05-06T05:35:32.416Z,949.77
2023-05-06T05:36:32.393Z,949.79
2023-05-06T05:37:32.512Z,949.82
2023-05-06T05:38:32.394Z,949.84
2023-05-06T05:39:32.389Z,949.79
2023-05-06T05:40:32.364Z,949.82
2023-05-06T05:41:32.339Z,949.78
2023-05-06T05:42:32.340Z,949.88
2023-05-06T05:43:32.334Z,949.81
2023-05-06T05:44:32.317Z,949.77
2023-05-06T05:45:32.313Z,949.89
2023-05-06T05:46:32.305Z,949.82
2023-05-06T05:47:32.295Z,949.81
2023-05-06T05:48:32.256Z,949.82
2023-05-06T05:49:32.254Z,949.86
2023-05-06T05:50:32.255Z,949.90
2023-05-06T05:51:32.227Z,949.91
2023-05-06T05:52:32.211Z,949.93
2023-05-06T05:53:32.374Z,949.93
2023-05-06T05:54:32.202Z,949.92
2023-05-06T05:55:32.186Z,949.97
2023-05-06T05:56:32.174Z,949.98
2023-05-06T05:57:32.170Z,949.92
2023-05-06T05:58:32.166Z,949.93
2023-05-06T05:59:32.135Z,949.97
2023-05-06T06:00:32.146Z,949.96
2023-05-06T06:01:32.113Z,949.98
2023-05-06T06:02:32.141Z,949.98
2023-05-06T06:03:32.235Z,949.95
2023-05-06T06:04:32.122Z,949.94
2023-05-06T06:05:32.064Z,949.98
2023-05-06T06:06:32.069Z,949.97
2023-05-06T06:07:32.048Z,949.95
2023-05-06T06:08:32.039Z,949.96
2023-05-06T06:09:32.120Z,949.92
2023-05-06T06:10:32.037Z,949.98
2023-05-06T06:11:32.001Z,950.01
2023-05-06T06:12:32.003Z,950.05
2023-05-06T06:13:32.240Z,950.02
2023-05-06T06:14:32.017Z,950.03
2023-05-06T06:15:31.987Z,950.04
2023-05-06T06:16:32.033Z,950.06
2023-05-06T06:17:31.996Z,950.06
2023-05-06T06:18:31.928Z,950.03
2023-05-06T06:19:31.927Z,950.12
2023-05-06T06:20:31.902Z,950.05
2023-05-06T06:21:31.903Z,950.08
2023-05-06T06:22:31.883Z,950.03
2023-05-06T06:23:31.876Z,950.08
2023-05-06T06:24:31.855Z,950.05
2023-05-06T06:25:32.072Z,950.15
2023-05-06T06:26:31.848Z,950.07
2023-05-06T06:27:31.817Z,950.08
2023-05-06T06:28:31.827Z,950.14
2023-05-06T06:29:31.807Z,950.13
2023-05-06T06:30:31.854Z,950.21
2023-05-06T06:31:31.783Z,950.16
2023-05-06T06:32:31.790Z,950.20
2023-05-06T06:33:31.762Z,950.19
2023-05-06T06:34:31.758Z,950.25
2023-05-06T06:35:31.736Z,950.24
2023-05-06T06:36:31.720Z,950.31
2023-05-06T06:37:31.721Z,950.23
2023-05-06T06:38:31.698Z,950.28
2023-05-06T06:39:31.739Z,950.56
2023-05-06T06:40:31.700Z,950.20
2023-05-06T06:41:31.770Z,950.28
2023-05-06T06:42:31.657Z,950.24
2023-05-06T06:43:31.671Z,950.29
2023-05-06T06:44:31.643Z,950.30
2023-05-06T06:45:31.683Z,950.23
2023-05-06T06:46:31.607Z,950.30
2023-05-06T06:47:31.675Z,950.23
2023-05-06T06:48:31.591Z,950.21
2023-05-06T06:49:31.599Z,950.25
2023-05-06T06:50:31.588Z,950.29
2023-05-06T06:51:31.549Z,950.29
2023-05-06T06:52:31.551Z,950.33
2023-05-06T06:53:31.534Z,950.30
2023-05-06T06:54:31.518Z,950.30
2023-05-06T06:55:31.536Z,950.33
2023-05-06T06:56:31.509Z,950.39
2023-05-06T06:57:31.580Z,950.35
2023-05-06T06:58:31.472Z,950.40
2023-05-06T06:59:31.486Z,950.45
2023-05-06T07:00:31.453Z,950.51
2023-05-06T07:01:31.464Z,950.47
2023-05-06T07:02:31.505Z,950.50
2023-05-06T07:03:31.432Z,950.48
2023-05-06T07:04:31.446Z,950.53
2023-05-06T07:05:31.405Z,950.51
2023-05-06T07:06:31.389Z,950.48
2023-05-06T07:07:31.379Z,950.54
2023-05-06T07:08:31.391Z,950.54
2023-05-06T07:09:31.717Z,950.56
2023-05-06T07:10:31.358Z,950.54
2023-05-06T07:11:31.362Z,950.55
2023-05-06T07:12:31.329Z,950.51
2023-05-06T07:13:31.460Z,950.49
2023-05-06T07:14:31.296Z,950.52
2023-05-06T07:15:31.293Z,950.49
2023-05-06T07:16:31.379Z,950.53
2023-05-06T07:17:31.270Z,950.56
2023-05-06T07:18:31.260Z,950.54
2023-05-06T07:19:31.256Z,950.54
2023-05-06T07:20:31.246Z,950.54
2023-05-06T07:21:31.246Z,950.55
2023-05-06T07:22:31.246Z,950.57
2023-05-06T07:23:32.058Z,950.60
2023-05-06T07:24:31.209Z,950.57
2023-05-06T07:25:31.188Z,950.59
2023-05-06T07:26:31.202Z,950.65
2023-05-06T07:27:31.158Z,950.62
2023-05-06T07:28:31.164Z,950.61
2023-05-06T07:29:31.286Z,950.61
2023-05-06T07:30:31.128Z,950.57
2023-05-06T07:31:31.164Z,950.63
2023-05-06T07:32:31.178Z,950.57
2023-05-06T07:33:31.118Z,950.59
2023-05-06T07:34:31.102Z,950.55
2023-05-06T07:35:31.219Z,950.56
2023-05-06T07:36:31.066Z,950.57
2023-05-06T07:37:31.060Z,950.50
2023-05-06T07:38:31.037Z,950.59
2023-05-06T07:39:31.030Z,950.65
2023-05-06T07:40:31.033Z,950.66
2023-05-06T07:41:31.025Z,950.67
2023-05-06T07:42:31.065Z,950.68
2023-05-06T07:43:30.981Z,950.67
2023-05-06T07:44:30.981Z,950.65
2023-05-06T07:45:31.189Z,950.65
2023-05-06T07:46:30.988Z,950.67
2023-05-06T07:47:31.102Z,950.69
2023-05-06T07:48:31.054Z,950.71
2023-05-06T07:49:30.938Z,950.75
2023-05-06T07:50:30.930Z,950.77
2023-05-06T07:51:30.902Z,950.78
2023-05-06T07:52:30.921Z,950.71
2023-05-06T07:53:30.967Z,950.78
2023-05-06T07:54:30.862Z,950.79
2023-05-06T07:55:31.445Z,950.75
2023-05-06T07:56:30.870Z,950.78
2023-05-06T07:57:30.857Z,950.84
2023-05-06T07:58:30.843Z,950.85
2023-05-06T07:59:30.808Z,950.89
2023-05-06T08:00:30.819Z,950.94
2023-05-06T08:01:30.806Z,950.93
2023-05-06T08:02:30.850Z,950.90
2023-05-06T08:03:30.913Z,950.93
2023-05-06T08:04:30.797Z,950.99
2023-05-06T08:05:30.760Z,950.96
2023-05-06T08:06:30.758Z,950.93
2023-05-06T08:07:30.730Z,950.92
2023-05-06T08:08:30.742Z,950.95
2023-05-06T08:09:30.709Z,950.95
2023-05-06T08:10:31.204Z,951.01
2023-05-06T08:11:30.685Z,950.95
2023-05-06T08:12:30.678Z,950.98
2023-05-06T08:13:30.684Z,951.01
2023-05-06T08:14:30.653Z,950.99
2023-05-06T08:15:30.635Z,950.95
2023-05-06T08:16:30.707Z,950.98
2023-05-06T08:17:30.740Z,951.01
2023-05-06T08:18:30.629Z,950.98
2023-05-06T08:19:30.589Z,951.04
2023-05-06T08:20:30.580Z,951.02
2023-05-06T08:21:30.587Z,950.98
2023-05-06T08:22:30.569Z,951.12
2023-05-06T08:23:30.550Z,951.10
2023-05-06T08:24:30.600Z,951.08
2023-05-06T08:25:30.542Z,951.05
2023-05-06T08:26:30.514Z,951.08
2023-05-06T08:27:30.512Z,951.05
2023-05-06T08:28:30.534Z,951.12
2023-05-06T08:29:30.485Z,951.00
2023-05-06T08:30:30.488Z,951.04
2023-05-06T08:31:30.485Z,951.07
2023-05-06T08:32:30.495Z,951.07
2023-05-06T08:33:30.550Z,951.07
2023-05-06T08:34:30.444Z,951.08
2023-05-06T08:35:30.421Z,951.04
2023-05-06T08:36:30.414Z,951.05
2023-05-06T08:37:30.468Z,951.09
2023-05-06T08:38:30.387Z,951.07
2023-05-06T08:39:30.372Z,951.10
2023-05-06T08:40:30.366Z,951.16
2023-05-06T08:41:30.428Z,951.22
2023-05-06T08:42:30.364Z,951.14
2023-05-06T08:43:30.352Z,951.14
2023-05-06T08:44:30.313Z,951.18
2023-05-06T08:45:30.373Z,951.26
2023-05-06T08:46:30.411Z,951.18
2023-05-06T08:47:30.301Z,951.22
2023-05-06T08:48:30.287Z,951.21
2023-05-06T08:49:30.376Z,951.25
2023-05-06T08:50:30.263Z,951.20
2023-05-06T08:51:37.845Z,951.23
2023-05-06T08:52:30.221Z,951.21
2023-05-06T08:53:30.223Z,951.22
2023-05-06T08:54:30.237Z,951.27
2023-05-06T08:55:30.194Z,951.25
2023-05-06T08:56:30.186Z,951.26
2023-05-06T08:57:30.169Z,951.18
2023-05-06T08:58:30.152Z,951.20
2023-05-06T08:59:30.138Z,951.25
2023-05-06T09:00:30.136Z,951.18
2023-05-06T09:01:30.196Z,951.22
2023-05-06T09:02:30.242Z,951.27
2023-05-06T09:03:30.246Z,951.23
2023-05-06T09:04:30.099Z,951.24
2023-05-06T09:05:30.178Z,951.32
2023-05-06T09:06:30.107Z,951.25
2023-05-06T09:07:30.057Z,951.24
2023-05-06T09:08:30.045Z,951.23
2023-05-06T09:09:30.023Z,951.25
2023-05-06T09:10:30.016Z,951.25
2023-05-06T09:11:30.062Z,951.22
2023-05-06T09:12:30.011Z,951.23
2023-05-06T09:13:29.981Z,951.25
2023-05-06T09:14:29.970Z,951.25
2023-05-06T09:15:29.984Z,951.28
2023-05-06T09:16:30.006Z,951.23
2023-05-06T09:17:29.945Z,951.27
2023-05-06T09:18:29.923Z,951.29
2023-05-06T09:19:29.908Z,951.27
2023-05-06T09:20:29.911Z,951.30
2023-05-06T09:21:29.985Z,951.28
2023-05-06T09:22:29.902Z,951.30
2023-05-06T09:23:29.883Z,951.33
2023-05-06T09:24:29.865Z,951.32
2023-05-06T09:25:29.857Z,951.35
2023-05-06T09:26:29.865Z,951.35
2023-05-06T09:27:29.840Z,951.32
2023-05-06T09:28:29.814Z,951.32
2023-05-06T09:29:29.829Z,951.35
2023-05-06T09:30:29.789Z,951.43
2023-05-06T09:31:29.858Z,951.33
2023-05-06T09:32:29.842Z,951.37
2023-05-06T09:33:29.760Z,951.39
2023-05-06T09:34:29.751Z,951.44
2023-05-06T09:35:29.777Z,951.31
2023-05-06T09:36:29.737Z,951.37
2023-05-06T09:37:29.727Z,951.42
2023-05-06T09:38:29.704Z,951.41
2023-05-06T09:39:29.702Z,951.52
2023-05-06T09:40:29.671Z,951.49
2023-05-06T09:41:29.678Z,951.55
2023-05-06T09:42:29.657Z,951.48
2023-05-06T09:43:29.642Z,951.43
2023-05-06T09:44:29.627Z,951.39
2023-05-06T09:45:29.652Z,951.47
2023-05-06T09:46:29.650Z,951.46
2023-05-06T09:47:29.635Z,951.40
2023-05-06T09:48:29.586Z,951.44
2023-05-06T09:49:29.582Z,951.44
2023-05-06T09:50:29.565Z,951.45
2023-05-06T09:51:29.567Z,951.42
2023-05-06T09:52:29.537Z,951.46
2023-05-06T09:53:29.538Z,951.49
2023-05-06T09:54:29.537Z,951.42
2023-05-06T09:55:29.545Z,951.45
2023-05-06T09:56:29.515Z,951.46
2023-05-06T09:57:29.485Z,951.38
2023-05-06T09:58:29.475Z,951.48
2023-05-06T09:59:29.498Z,951.36
2023-05-06T10:00:29.476Z,951.48
2023-05-06T10:01:36.953Z,951.44
2023-05-06T10:02:30.565Z,951.42
2023-05-06T10:03:29.596Z,951.40
2023-05-06T10:04:29.588Z,951.38
2023-05-06T10:05:29.476Z,951.43
2023-05-06T10:06:29.515Z,951.39
2023-05-06T10:07:29.411Z,951.34
2023-05-06T10:08:29.358Z,951.36
2023-05-06T10:09:29.516Z,951.33
2023-05-06T10:10:29.353Z,951.35
2023-05-06T10:11:29.314Z,951.37
2023-05-06T10:12:29.308Z,951.41
2023-05-06T10:13:29.298Z,951.36
2023-05-06T10:14:29.311Z,951.34
2023-05-06T10:15:29.267Z,951.35
2023-05-06T10:16:29.352Z,951.39
2023-05-06T10:17:29.317Z,951.35
2023-05-06T10:18:29.263Z,951.37
2023-05-06T10:19:29.230Z,951.39
2023-05-06T10:20:29.213Z,951.33
2023-05-06T10:21:29.198Z,951.31
2023-05-06T10:22:29.197Z,951.34
2023-05-06T10:23:29.203Z,951.32
2023-05-06T10:24:29.168Z,951.32
2023-05-06T10:25:29.271Z,951.32
2023-05-06T10:26:29.156Z,951.30
2023-05-06T10:27:29.135Z,951.26
2023-05-06T10:28:31.070Z,951.30
2023-05-06T10:29:29.106Z,951.34
2023-05-06T10:30:29.108Z,951.29
2023-05-06T10:31:29.125Z,951.33
2023-05-06T10:32:29.132Z,951.34
2023-05-06T10:33:29.084Z,951.32
2023-05-06T10:34:29.253Z,951.29
2023-05-06T10:35:29.055Z,951.26
2023-05-06T10:36:29.027Z,951.26
2023-05-06T10:37:29.034Z,951.29
2023-05-06T10:38:29.005Z,951.40
2023-05-06T10:39:28.994Z,951.37
2023-05-06T10:40:29.009Z,951.35
2023-05-06T10:41:29.058Z,951.29
2023-05-06T10:42:28.964Z,951.34
2023-05-06T10:43:28.993Z,951.36
2023-05-06T10:44:28.940Z,951.32
2023-05-06T10:45:28.987Z,951.36
2023-05-06T10:46:29.015Z,951.33
2023-05-06T10:47:28.949Z,951.27
2023-05-06T10:48:28.927Z,951.28
2023-05-06T10:49:28.886Z,951.25
2023-05-06T10:50:28.923Z,951.27
2023-05-06T10:51:28.864Z,951.30
2023-05-06T10:52:28.846Z,951.25
2023-05-06T10:53:28.835Z,951.21
2023-05-06T10:54:28.844Z,951.29
2023-05-06T10:55:28.808Z,951.23
2023-05-06T10:56:28.818Z,951.22
2023-05-06T10:57:28.886Z,951.26
2023-05-06T10:58:28.794Z,951.33
2023-05-06T10:59:28.763Z,951.34
2023-05-06T11:00:28.779Z,951.19
2023-05-06T11:01:28.823Z,951.17
2023-05-06T11:02:28.784Z,951.13
2023-05-06T11:03:28.761Z,951.17
2023-05-06T11:04:28.755Z,951.15
2023-05-06T11:05:28.702Z,951.20
2023-05-06T11:06:28.693Z,951.16
2023-05-06T11:07:28.705Z,951.14
2023-05-06T11:08:28.674Z,951.21
2023-05-06T11:09:28.665Z,951.15
2023-05-06T11:10:28.657Z,951.14
2023-05-06T11:14:17.127Z,951.12
2023-05-06T11:15:17.052Z,951.09
2023-05-06T11:16:17.068Z,951.14
2023-05-06T11:17:17.033Z,951.13
2023-05-06T11:18:17.047Z,951.20
2023-05-06T11:19:17.007Z,951.21
2023-05-06T11:20:17.003Z,951.24
2023-05-06T11:21:17.016Z,951.20
2023-05-06T11:22:16.982Z,951.21
2023-05-06T11:23:16.959Z,951.28
2023-05-06T11:24:16.954Z,951.28
2023-05-06T11:25:16.984Z,951.29
2023-05-06T11:26:16.967Z,951.29
2023-05-06T11:27:16.975Z,951.31
2023-05-06T11:28:16.952Z,951.33
2023-05-06T11:29:16.968Z,951.29
2023-05-06T11:30:16.919Z,951.34
2023-05-06T11:31:16.974Z,951.32
2023-05-06T11:32:16.920Z,951.35
2023-05-06T11:33:16.853Z,951.31
2023-05-06T11:34:16.847Z,951.27
2023-05-06T11:35:16.911Z,951.34
2023-05-06T11:36:16.829Z,951.34
2023-05-06T11:37:16.808Z,951.36
2023-05-06T11:38:16.808Z,951.31
2023-05-06T11:39:16.778Z,951.38
2023-05-06T11:40:16.785Z,951.35
2023-05-06T11:41:16.781Z,951.29
2023-05-06T11:42:16.792Z,951.35
2023-05-06T11:43:16.734Z,951.36
2023-05-06T11:44:16.727Z,951.41
2023-05-06T11:45:16.744Z,951.33
2023-05-06T11:46:16.754Z,951.29
2023-05-06T11:47:16.708Z,951.38
2023-05-06T11:48:16.739Z,951.32
2023-05-06T11:49:16.670Z,951.44
2023-05-06T11:50:16.687Z,951.41
2023-05-06T11:51:16.645Z,951.36
2023-05-06T11:52:16.691Z,951.37
2023-05-06T11:53:16.662Z,951.38
2023-05-06T11:54:16.641Z,951.37
2023-05-06T11:55:16.603Z,951.44
2023-05-06T11:56:16.614Z,951.46
2023-05-06T11:57:16.579Z,951.46
2023-05-06T11:58:16.639Z,951.53
2023-05-06T11:59:16.596Z,951.46
2023-05-06T12:00:16.568Z,951.45
2023-05-06T12:01:16.556Z,951.49
2023-05-06T12:02:16.747Z,951.48
2023-05-06T12:03:16.642Z,951.47
2023-05-06T12:04:16.521Z,951.43
2023-05-06T12:05:16.558Z,951.38
2023-05-06T12:06:16.496Z,951.37
2023-05-06T12:07:16.490Z,951.43
2023-05-06T12:08:26.168Z,951.39
2023-05-06T12:09:17.478Z,951.37
2023-05-06T12:10:16.432Z,951.32
2023-05-06T12:11:16.418Z,951.36
2023-05-06T12:12:16.449Z,951.40
2023-05-06T12:13:16.549Z,951.46
2023-05-06T12:14:16.408Z,951.45
2023-05-06T12:15:16.377Z,951.46
2023-05-06T12:16:16.417Z,951.45
2023-05-06T12:17:16.349Z,951.58
2023-05-06T12:18:16.432Z,951.58
2023-05-06T12:19:16.331Z,951.61
2023-05-06T12:20:16.329Z,951.61
2023-05-06T12:21:16.317Z,951.62
2023-05-06T12:22:16.365Z,951.67
2023-05-06T12:23:16.274Z,951.60
2023-05-06T12:24:16.352Z,951.60
2023-05-06T12:25:16.254Z,951.60
2023-05-06T12:26:16.278Z,951.58
2023-05-06T12:27:16.242Z,951.66
2023-05-06T12:28:16.231Z,951.63
2023-05-06T12:29:16.232Z,951.63
2023-05-06T12:30:16.220Z,951.64
2023-05-06T12:31:16.257Z,951.55
2023-05-06T12:32:16.207Z,951.56
2023-05-06T12:33:16.179Z,951.51
2023-05-06T12:34:16.250Z,951.49